Terminal Aerodrome Forecast
Issued by NWS

Home | Current Version | Previous Version | Text Only | Print | Product List | Glossary On
Versions: 1 2 3 4 5 6 7 8 9 10 11 12 13 14 15 16 17 18 19 20 21 22 23 24 25 26 27 28 29 30 31 32 33
000
FTUS43 KGLD 261729
TAFMCK
TAF
KMCK 261729Z 2618/2718 33014G22KT P6SM SCT050 BKN110
     FM262000 33013KT P6SM BKN070
     FM270000 VRB05KT P6SM BKN050
     FM270400 17005KT P6SM BKN040
     FM271600 17009KT P6SM SKC=

USA.gov is the U.S. government's official web portal to all federal, state and local government web resources and services.